createdAt,value
2023-01-18T00:01:31.220Z,95086.97
2023-01-18T00:04:01.518Z,95078.13
2023-01-18T00:06:31.785Z,95075.19
2023-01-18T00:09:02.051Z,95070.75
2023-01-18T00:11:32.445Z,95077.72
2023-01-18T00:14:03.149Z,95076.22
2023-01-18T00:16:36.383Z,95073.75
2023-01-18T00:19:06.995Z,95066.81
2023-01-18T00:21:37.389Z,95073.75
2023-01-18T00:24:11.187Z,95061.88
2023-01-18T00:26:41.493Z,95057.72
2023-01-18T00:29:12.988Z,95053.28
2023-01-18T00:31:45.964Z,95054.03
2023-01-18T00:34:16.238Z,95047.09
2023-01-18T00:36:46.514Z,95061.25
2023-01-18T00:39:17.199Z,95055.84
2023-01-18T00:41:59.880Z,95057.63
2023-01-18T00:44:30.099Z,95061.13
2023-01-18T00:47:03.091Z,95069.78
2023-01-18T00:49:33.423Z,95071.97
2023-01-18T00:52:03.700Z,95078.78
2023-01-18T00:54:33.993Z,95074.69
2023-01-18T00:57:04.270Z,95075.31
2023-01-18T00:59:34.584Z,95081.19
2023-01-18T01:02:07.734Z,95078.44
2023-01-18T01:04:50.443Z,95070.44
2023-01-18T01:07:20.709Z,95077.38
2023-01-18T01:09:51.016Z,95062.16
2023-01-18T01:12:33.714Z,95064.25
2023-01-18T01:15:16.374Z,95077.44
2023-01-18T01:18:01.668Z,95071.81
2023-01-18T01:20:44.503Z,95072.34
2023-01-18T01:23:29.820Z,95071.63
2023-01-18T01:26:08.109Z,95074.38
2023-01-18T01:28:39.104Z,95078.59
2023-01-18T01:31:12.107Z,95079.34
2023-01-18T01:33:45.716Z,95079.34
2023-01-18T01:36:18.035Z,95075.41
2023-01-18T01:38:48.379Z,95077.44
2023-01-18T01:41:25.431Z,95070.06
2023-01-18T01:43:58.017Z,95069.63
2023-01-18T01:46:36.959Z,95060.69
2023-01-18T01:49:14.634Z,95060.91
2023-01-18T01:51:48.086Z,95057.97
2023-01-18T01:54:25.449Z,95058.19
2023-01-18T01:57:00.758Z,95054.94
2023-01-18T01:59:31.184Z,95060.69
2023-01-18T02:02:01.594Z,95054.66
2023-01-18T02:04:35.424Z,95052.19
2023-01-18T02:07:05.798Z,95056.72
2023-01-18T02:09:36.166Z,95063.00
2023-01-18T02:12:07.345Z,95065.50
2023-01-18T02:14:37.734Z,95066.53
2023-01-18T02:17:31.044Z,95059.84
2023-01-18T02:20:41.937Z,95059.59
2023-01-18T02:23:35.657Z,95063.84
2023-01-18T02:26:42.423Z,95064.16
2023-01-18T02:29:19.340Z,95058.09
2023-01-18T02:32:06.667Z,95063.84
2023-01-18T02:34:44.098Z,95067.13
2023-01-18T02:37:23.916Z,95067.88
2023-01-18T02:40:08.189Z,95070.88
2023-01-18T02:42:53.855Z,95076.81
2023-01-18T02:45:46.507Z,95076.81
2023-01-18T02:48:18.155Z,95074.31
2023-01-18T02:50:48.448Z,95067.66
2023-01-18T02:53:20.243Z,95071.41
2023-01-18T02:55:56.611Z,95059.03
2023-01-18T02:58:31.900Z,95057.81
2023-01-18T03:01:10.851Z,95056.31
2023-01-18T03:03:44.901Z,95065.72
2023-01-18T03:06:15.642Z,95065.50
2023-01-18T03:08:51.079Z,95060.81
2023-01-18T03:11:30.324Z,95056.31
2023-01-18T03:14:13.016Z,95054.59
2023-01-18T03:17:00.760Z,95056.34
2023-01-18T03:19:55.621Z,95049.16
2023-01-18T03:22:49.402Z,95047.94
2023-01-18T03:25:22.628Z,95051.16
2023-01-18T03:28:08.561Z,95053.41
2023-01-18T03:30:52.188Z,95055.91
2023-01-18T03:33:40.100Z,95057.84
2023-01-18T03:36:17.717Z,95061.56
2023-01-18T03:38:53.629Z,95061.00
2023-01-18T03:41:26.126Z,95061.25
2023-01-18T03:43:59.666Z,95055.31
2023-01-18T03:46:34.491Z,95050.09
2023-01-18T03:49:07.961Z,95061.00
2023-01-18T03:51:52.444Z,95053.84
2023-01-18T03:54:33.418Z,95050.84
2023-01-18T03:57:10.589Z,95047.16
2023-01-18T03:59:42.431Z,95050.41
2023-01-18T04:02:13.838Z,95046.72
2023-01-18T04:04:46.782Z,95051.94
2023-01-18T04:07:17.156Z,95054.94
2023-01-18T04:09:47.490Z,95056.94
2023-01-18T04:12:17.813Z,95058.34
2023-01-18T04:14:48.168Z,95056.38
2023-01-18T04:17:19.140Z,95060.81
2023-01-18T04:19:52.148Z,95070.50
2023-01-18T04:22:22.942Z,95077.44
2023-01-18T04:24:53.282Z,95080.69
2023-01-18T04:27:25.216Z,95073.22
2023-01-18T04:29:55.658Z,95080.13
2023-01-18T04:32:25.953Z,95085.84
2023-01-18T04:34:58.884Z,95090.63
2023-01-18T04:37:31.608Z,95093.88
2023-01-18T04:40:01.866Z,95090.13
2023-01-18T04:42:32.357Z,95086.69
2023-01-18T04:45:02.834Z,95096.88
2023-01-18T04:47:33.063Z,95093.16
2023-01-18T04:50:07.814Z,95099.03
2023-01-18T04:52:38.123Z,95100.50
2023-01-18T04:55:11.796Z,95088.81
2023-01-18T04:57:42.156Z,95092.81
2023-01-18T05:00:15.077Z,95087.84
2023-01-18T05:02:45.415Z,95090.56
2023-01-18T05:05:18.625Z,95090.28
2023-01-18T05:07:48.973Z,95101.72
2023-01-18T05:10:20.014Z,95096.00
2023-01-18T05:12:50.338Z,95087.03
2023-01-18T05:15:20.964Z,95097.97
2023-01-18T05:17:51.351Z,95096.38
2023-01-18T05:20:24.344Z,95099.09
2023-01-18T05:22:54.655Z,95088.19
2023-01-18T05:25:24.991Z,95087.69
2023-01-18T05:27:55.320Z,95094.66
2023-01-18T05:30:25.612Z,95087.47
2023-01-18T05:32:55.907Z,95095.72
2023-01-18T05:35:28.901Z,95098.66
2023-01-18T05:37:59.221Z,95111.56
2023-01-18T05:40:29.654Z,95110.34
2023-01-18T05:43:00.326Z,95117.72
2023-01-18T05:45:30.954Z,95121.75
2023-01-18T05:48:13.228Z,95131.44
2023-01-18T05:50:48.617Z,95124.00
2023-01-18T05:53:21.101Z,95128.94
2023-01-18T05:55:58.176Z,95131.84
2023-01-18T05:58:29.282Z,95144.56
2023-01-18T06:00:59.919Z,95139.84
2023-01-18T06:03:30.275Z,95142.09
2023-01-18T06:06:03.241Z,95137.38
2023-01-18T06:08:33.992Z,95142.09
2023-01-18T06:11:04.596Z,95137.66
2023-01-18T06:13:35.579Z,95134.41
2023-01-18T06:16:07.436Z,95137.13
2023-01-18T06:18:39.649Z,95138.34
2023-01-18T06:21:12.583Z,95140.59
2023-01-18T06:23:42.866Z,95134.41
2023-01-18T06:26:13.193Z,95129.94
2023-01-18T06:28:43.512Z,95136.91
2023-01-18T06:31:13.817Z,95139.09
2023-01-18T06:33:44.028Z,95141.84
2023-01-18T06:36:17.028Z,95143.34
2023-01-18T06:38:47.347Z,95157.94
2023-01-18T06:41:18.180Z,95155.47
2023-01-18T06:43:48.501Z,95149.69
2023-01-18T06:46:19.806Z,95153.88
2023-01-18T06:48:50.265Z,95152.38
2023-01-18T06:51:23.517Z,95160.84
2023-01-18T06:53:53.868Z,95160.34
2023-01-18T06:56:25.206Z,95171.00
2023-01-18T06:58:57.414Z,95164.28
2023-01-18T07:01:28.411Z,95170.50
2023-01-18T07:03:58.911Z,95178.97
2023-01-18T07:06:32.283Z,95178.50
2023-01-18T07:09:02.632Z,95182.66
2023-01-18T07:11:32.947Z,95180.19
2023-01-18T07:14:03.282Z,95188.66
2023-01-18T07:16:33.600Z,95190.34
2023-01-18T07:19:04.730Z,95196.09
2023-01-18T07:21:37.715Z,95203.53
2023-01-18T07:24:09.490Z,95206.28
2023-01-18T07:26:40.039Z,95203.31
2023-01-18T07:29:10.386Z,95199.88
2023-01-18T07:31:41.143Z,95200.34
2023-01-18T07:34:13.512Z,95203.31
2023-01-18T07:36:47.198Z,95208.06
2023-01-18T07:39:17.501Z,95205.78
2023-01-18T07:41:47.745Z,95208.31
2023-01-18T07:44:21.369Z,95210.09
2023-01-18T07:46:51.672Z,95219.78
2023-01-18T07:49:22.007Z,95219.84
2023-01-18T07:51:55.293Z,95227.97
2023-01-18T07:54:26.308Z,95227.16
2023-01-18T07:56:56.640Z,95222.94
2023-01-18T07:59:27.956Z,95227.41
2023-01-18T08:01:58.246Z,95226.25
2023-01-18T08:04:28.591Z,95229.19
2023-01-18T08:07:03.465Z,95230.19
2023-01-18T08:09:34.075Z,95234.91
2023-01-18T08:12:06.796Z,95242.91
2023-01-18T08:14:37.179Z,95248.38
2023-01-18T08:17:08.141Z,95258.13
2023-01-18T08:19:38.894Z,95256.56
2023-01-18T08:22:11.996Z,95262.78
2023-01-18T08:24:42.310Z,95260.19
2023-01-18T08:27:12.597Z,95263.19
2023-01-18T08:29:42.884Z,95268.94
2023-01-18T08:32:13.216Z,95273.25
2023-01-18T08:34:43.772Z,95282.97
2023-01-18T08:37:17.378Z,95289.00
2023-01-18T08:39:47.876Z,95282.78
2023-01-18T08:42:21.186Z,95291.72
2023-01-18T08:44:51.918Z,95294.69
2023-01-18T08:47:22.326Z,95288.00
2023-01-18T08:49:52.633Z,95287.47
2023-01-18T08:52:25.766Z,95298.94
2023-01-18T08:54:56.058Z,95301.44
2023-01-18T08:57:26.566Z,95309.19
2023-01-18T08:59:57.131Z,95312.38
2023-01-18T09:02:28.688Z,95303.94
2023-01-18T09:04:59.226Z,95313.69
2023-01-18T09:07:32.252Z,95316.81
2023-01-18T09:10:02.608Z,95322.34
2023-01-18T09:12:34.875Z,95321.84
2023-01-18T09:15:05.162Z,95326.38
2023-01-18T09:17:35.538Z,95334.06
2023-01-18T09:20:09.744Z,95333.88
2023-01-18T09:22:43.013Z,95332.66
2023-01-18T09:25:14.087Z,95336.88
2023-01-18T09:27:45.158Z,95336.88
2023-01-18T09:30:16.889Z,95343.34
2023-01-18T09:32:47.842Z,95342.13
2023-01-18T09:35:18.737Z,95345.13
2023-01-18T09:37:51.929Z,95349.84
2023-01-18T09:40:25.405Z,95351.88
2023-01-18T09:42:56.821Z,95350.66
2023-01-18T09:45:33.402Z,95352.03
2023-01-18T09:48:10.782Z,95351.78
2023-01-18T09:50:45.509Z,95356.00
2023-01-18T09:53:31.932Z,95360.22
2023-01-18T09:56:09.807Z,95353.81
2023-01-18T09:58:54.721Z,95353.81
2023-01-18T10:01:30.098Z,95360.03
2023-01-18T10:04:04.163Z,95349.56
2023-01-18T10:06:45.256Z,95353.41
2023-01-18T10:09:22.382Z,95351.88
2023-01-18T10:12:00.357Z,95352.91
2023-01-18T10:14:48.023Z,95362.41
2023-01-18T10:17:24.142Z,95356.25
2023-01-18T10:19:54.940Z,95364.44
2023-01-18T10:22:29.499Z,95368.63
2023-01-18T10:25:07.647Z,95368.81
2023-01-18T10:28:25.296Z,95373.00
2023-01-18T10:31:22.800Z,95374.22
2023-01-18T10:33:57.815Z,95382.09
2023-01-18T10:36:34.267Z,95387.31
2023-01-18T10:39:25.346Z,95379.84
2023-01-18T10:42:06.125Z,95390.78
2023-01-18T10:44:37.150Z,95388.81
2023-01-18T10:47:07.663Z,95391.53
2023-01-18T10:49:44.010Z,95396.03
2023-01-18T10:52:31.825Z,95392.50
2023-01-18T10:55:07.520Z,95389.34
2023-01-18T10:57:46.139Z,95400.22
2023-01-18T11:00:27.829Z,95395.78
2023-01-18T11:03:01.014Z,95397.69
2023-01-18T11:05:35.065Z,95398.44
2023-01-18T11:08:17.303Z,95404.66
2023-01-18T11:10:47.604Z,95409.63
2023-01-18T11:13:45.215Z,95415.91
2023-01-18T11:16:19.303Z,95408.22
2023-01-18T11:19:04.542Z,95412.72
2023-01-18T11:21:51.669Z,95413.00
2023-01-18T11:24:30.013Z,95418.94
2023-01-18T11:27:03.723Z,95425.16
2023-01-18T11:29:39.772Z,95418.66
2023-01-18T11:32:26.720Z,95419.53
2023-01-18T11:35:00.080Z,95427.28
2023-01-18T11:37:37.250Z,95434.78
2023-01-18T11:40:29.621Z,95429.50
2023-01-18T11:43:04.426Z,95431.69
2023-01-18T11:45:45.550Z,95436.88
2023-01-18T11:48:31.387Z,95445.75
2023-01-18T11:51:08.817Z,95443.50
2023-01-18T11:53:49.542Z,95452.44
2023-01-18T11:56:33.638Z,95447.47
2023-01-18T11:59:05.598Z,95457.38
2023-01-18T12:02:17.265Z,95470.47
2023-01-18T12:05:07.890Z,95473.66
2023-01-18T12:07:51.217Z,95477.91
2023-01-18T12:10:25.958Z,95483.44
2023-01-18T12:13:25.449Z,95482.31
2023-01-18T12:16:11.254Z,95479.28
2023-01-18T12:19:26.134Z,95489.19
2023-01-18T12:22:30.700Z,95485.91
2023-01-18T12:25:20.950Z,95483.44
2023-01-18T12:28:04.984Z,95491.72
2023-01-18T12:30:52.434Z,95489.28
2023-01-18T12:33:43.825Z,95501.59
2023-01-18T12:36:52.379Z,95506.44
2023-01-18T12:39:50.593Z,95504.19
2023-01-18T12:42:36.580Z,95515.69
2023-01-18T12:45:21.144Z,95520.41
2023-01-18T12:48:08.470Z,95521.31
2023-01-18T12:50:42.635Z,95523.31
2023-01-18T12:53:21.898Z,95527.75
2023-01-18T12:55:59.998Z,95531.50
2023-01-18T12:58:30.652Z,95536.13
2023-01-18T13:01:05.923Z,95546.19
2023-01-18T13:03:45.250Z,95544.22
2023-01-18T13:06:17.640Z,95545.06
2023-01-18T13:08:56.522Z,95542.63
2023-01-18T13:11:30.455Z,95550.06
2023-01-18T13:14:10.773Z,95552.88
2023-01-18T13:16:53.268Z,95553.53
2023-01-18T13:19:29.574Z,95555.22
2023-01-18T13:22:10.382Z,95563.91
2023-01-18T13:25:09.696Z,95570.41
2023-01-18T13:27:40.473Z,95575.03
2023-01-18T13:30:19.868Z,95579.53
2023-01-18T13:32:50.196Z,95585.28
2023-01-18T13:35:25.994Z,95586.50
2023-01-18T13:37:59.299Z,95593.28
2023-01-18T13:40:45.584Z,95601.22
2023-01-18T13:43:36.569Z,95609.66
2023-01-18T13:46:23.461Z,95610.41
2023-01-18T13:48:57.553Z,95612.97
2023-01-18T13:51:58.861Z,95625.38
2023-01-18T13:55:05.665Z,95627.75
2023-01-18T13:57:39.187Z,95633.41
2023-01-18T14:00:25.854Z,95635.94
2023-01-18T14:02:58.280Z,95643.22
2023-01-18T14:05:39.460Z,95644.13
2023-01-18T14:08:13.542Z,95648.84
2023-01-18T14:10:53.127Z,95657.31
2023-01-18T14:14:04.966Z,95669.00
2023-01-18T14:16:38.342Z,95678.72
2023-01-18T14:19:19.995Z,95670.31
2023-01-18T14:22:11.313Z,95680.09
2023-01-18T14:25:12.935Z,95681.63
2023-01-18T14:27:45.011Z,95683.88
2023-01-18T14:30:28.555Z,95691.78
2023-01-18T14:33:04.685Z,95696.31
2023-01-18T14:35:35.145Z,95695.97
2023-01-18T14:38:18.013Z,95699.91
2023-01-18T14:40:51.442Z,95709.63
2023-01-18T14:43:28.981Z,95713.56
2023-01-18T14:46:05.717Z,95722.97
2023-01-18T14:48:38.920Z,95732.38
2023-01-18T14:51:09.717Z,95733.59
2023-01-18T14:53:48.551Z,95742.56
2023-01-18T14:56:23.022Z,95733.25
2023-01-18T14:58:59.276Z,95749.13
2023-01-18T15:01:36.316Z,95755.81
2023-01-18T15:04:18.940Z,95756.47
2023-01-18T15:06:52.106Z,95772.84
2023-01-18T15:09:27.994Z,95782.63
2023-01-18T15:12:05.657Z,95778.97
2023-01-18T15:14:39.949Z,95775.78
2023-01-18T15:17:21.670Z,95785.75
2023-01-18T15:19:55.803Z,95786.50
2023-01-18T15:22:32.454Z,95794.69
2023-01-18T15:25:03.630Z,95803.66
2023-01-18T15:27:35.761Z,95807.31
2023-01-18T15:30:15.386Z,95808.84
2023-01-18T15:32:50.466Z,95815.78
2023-01-18T15:35:21.199Z,95819.56
2023-01-18T15:37:51.779Z,95822.94
2023-01-18T15:40:29.831Z,95825.69
2023-01-18T15:43:09.256Z,95840.53
2023-01-18T15:45:43.899Z,95841.75
2023-01-18T15:48:23.288Z,95850.56
2023-01-18T15:50:56.831Z,95850.72
2023-01-18T15:53:33.973Z,95853.28
2023-01-18T15:56:06.606Z,95859.78
2023-01-18T15:58:40.189Z,95864.47
2023-01-18T16:01:20.419Z,95875.25
2023-01-18T16:04:04.578Z,95872.41
2023-01-18T16:06:37.553Z,95876.94
2023-01-18T16:09:19.235Z,95880.72
2023-01-18T16:11:52.713Z,95876.47
2023-01-18T16:14:35.260Z,95889.81
2023-01-18T16:17:09.700Z,95893.19
2023-01-18T16:19:45.966Z,95903.66
2023-01-18T16:22:23.995Z,95901.38
2023-01-18T16:24:57.887Z,95907.31
2023-01-18T16:27:31.967Z,95908.25
2023-01-18T16:30:05.541Z,95919.78
2023-01-18T16:32:39.143Z,95925.84
2023-01-18T16:35:20.202Z,95929.78
2023-01-18T16:37:52.146Z,95937.38
2023-01-18T16:40:25.932Z,95943.13
2023-01-18T16:43:03.402Z,95944.66
2023-01-18T16:45:37.891Z,95951.19
2023-01-18T16:48:09.425Z,95957.88
2023-01-18T16:50:42.372Z,95963.19
2023-01-18T16:53:12.804Z,95969.91
2023-01-18T16:55:44.235Z,95970.16
2023-01-18T16:58:16.305Z,95979.56
2023-01-18T17:00:55.252Z,95985.34
2023-01-18T17:03:26.144Z,95988.06
2023-01-18T17:05:59.141Z,95992.94
2023-01-18T17:08:29.485Z,95997.81
2023-01-18T17:11:00.119Z,96002.50
2023-01-18T17:13:30.808Z,96009.34
2023-01-18T17:16:01.158Z,96014.19
2023-01-18T17:18:31.501Z,96023.59
2023-01-18T17:21:04.407Z,96021.31
2023-01-18T17:23:34.769Z,96031.19
2023-01-18T17:26:05.321Z,96039.69
2023-01-18T17:28:35.824Z,96049.56
2023-01-18T17:31:06.319Z,96053.94
2023-01-18T17:33:39.279Z,96064.88
2023-01-18T17:36:12.835Z,96066.50
2023-01-18T17:38:43.449Z,96071.53
2023-01-18T17:41:26.706Z,96076.53
2023-01-18T17:43:57.654Z,96084.41
2023-01-18T17:46:28.302Z,96078.50
2023-01-18T17:48:59.125Z,96098.69
2023-01-18T17:51:35.485Z,96098.69
2023-01-18T17:54:13.150Z,96102.75
2023-01-18T17:56:50.796Z,96113.97
2023-01-18T17:59:21.108Z,96111.69
2023-01-18T18:01:51.633Z,96117.91
2023-01-18T18:04:22.146Z,96125.63
2023-01-18T18:06:58.487Z,96123.38
2023-01-18T18:09:29.109Z,96124.25
2023-01-18T18:12:00.212Z,96132.16
2023-01-18T18:14:30.809Z,96133.06
2023-01-18T18:17:01.209Z,96138.66
2023-01-18T18:19:32.475Z,96149.09
2023-01-18T18:22:06.156Z,96158.38
2023-01-18T18:24:36.412Z,96160.78
2023-01-18T18:27:06.969Z,96167.44
2023-01-18T18:29:37.294Z,96168.97
2023-01-18T18:32:09.041Z,96166.56
2023-01-18T18:34:40.209Z,96167.75
2023-01-18T18:37:15.263Z,96169.72
2023-01-18T18:39:45.652Z,96184.56
2023-01-18T18:42:15.986Z,96174.28
2023-01-18T18:44:46.707Z,96184.72
2023-01-18T18:47:17.251Z,96189.13
2023-01-18T18:49:48.037Z,96195.19
2023-01-18T18:52:21.027Z,96202.00
2023-01-18T18:54:51.365Z,96207.03
2023-01-18T18:57:21.672Z,96208.81
2023-01-18T18:59:51.931Z,96222.47
2023-01-18T19:02:22.229Z,96220.34
2023-01-18T19:04:52.774Z,96224.13
2023-01-18T19:07:25.801Z,96227.59
2023-01-18T19:09:56.164Z,96226.72
2023-01-18T19:12:26.565Z,96232.03
2023-01-18T19:14:56.831Z,96236.13
2023-01-18T19:17:31.512Z,96241.28
2023-01-18T19:20:02.388Z,96243.53
2023-01-18T19:22:35.373Z,96241.84
2023-01-18T19:25:05.711Z,96237.13
2023-01-18T19:27:35.935Z,96242.31
2023-01-18T19:30:12.980Z,96241.09
2023-01-18T19:32:43.376Z,96244.56
2023-01-18T19:35:13.844Z,96252.31
2023-01-18T19:37:47.752Z,96258.22
2023-01-18T19:40:20.102Z,96263.22
2023-01-18T19:42:55.936Z,96268.38
2023-01-18T19:45:28.511Z,96276.16
2023-01-18T19:48:00.720Z,96281.13
2023-01-18T19:50:32.832Z,96281.31
2023-01-18T19:53:06.255Z,96283.88
2023-01-18T19:55:37.262Z,96290.38
2023-01-18T19:58:07.680Z,96286.41
2023-01-18T20:00:41.435Z,96301.25
2023-01-18T20:03:16.367Z,96307.72
2023-01-18T20:05:47.436Z,96311.09
2023-01-18T20:08:20.404Z,96315.56
2023-01-18T20:10:52.860Z,96311.44
2023-01-18T20:13:24.495Z,96314.22
2023-01-18T20:15:54.946Z,96318.72
2023-01-18T20:18:25.359Z,96322.47
2023-01-18T20:20:57.067Z,96319.28
2023-01-18T20:23:30.984Z,96323.59
2023-01-18T20:26:01.475Z,96323.84
2023-01-18T20:28:31.962Z,96328.03
2023-01-18T20:31:03.623Z,96338.34
2023-01-18T20:33:35.474Z,96333.09
2023-01-18T20:36:05.964Z,96340.69
2023-01-18T20:38:39.278Z,96345.25
2023-01-18T20:41:09.807Z,96352.06
2023-01-18T20:43:41.329Z,96352.91
2023-01-18T20:46:13.577Z,96354.22
2023-01-18T20:48:43.912Z,96353.75
2023-01-18T20:51:14.415Z,96360.72
2023-01-18T20:53:47.481Z,96360.31
2023-01-18T20:56:28.892Z,96364.22
2023-01-18T20:59:00.261Z,96364.88
2023-01-18T21:01:33.080Z,96372.50
2023-01-18T21:04:05.643Z,96375.72
2023-01-18T21:06:36.095Z,96369.84
2023-01-18T21:09:09.110Z,96371.59
2023-01-18T21:11:39.455Z,96370.16
2023-01-18T21:14:10.129Z,96376.88
2023-01-18T21:16:40.609Z,96375.28
2023-01-18T21:19:11.028Z,96373.34
2023-01-18T21:21:41.635Z,96377.16
2023-01-18T21:24:14.752Z,96375.97
2023-01-18T21:26:45.053Z,96386.19
2023-01-18T21:29:15.390Z,96381.50
2023-01-18T21:31:45.742Z,96384.66
2023-01-18T21:34:16.167Z,96384.03
2023-01-18T21:36:46.546Z,96386.00
2023-01-18T21:39:25.340Z,96385.81
2023-01-18T21:42:08.192Z,96389.63
2023-01-18T21:44:50.879Z,96394.38
2023-01-18T21:47:21.139Z,96387.19
2023-01-18T21:50:19.063Z,96396.88
2023-01-18T21:53:01.654Z,96395.53
2023-01-18T21:55:34.588Z,96398.91
2023-01-18T21:58:17.279Z,96409.72
2023-01-18T22:00:47.747Z,96409.28
2023-01-18T22:03:18.658Z,96411.81
2023-01-18T22:05:49.153Z,96411.47
2023-01-18T22:08:19.589Z,96406.50
2023-01-18T22:10:52.550Z,96410.72
2023-01-18T22:13:22.934Z,96412.16
2023-01-18T22:15:53.356Z,96421.50
2023-01-18T22:18:23.708Z,96419.34
2023-01-18T22:21:00.101Z,96427.72
2023-01-18T22:23:30.485Z,96414.63
2023-01-18T22:26:03.563Z,96422.56
2023-01-18T22:28:33.907Z,96424.44
2023-01-18T22:31:06.873Z,96425.06
2023-01-18T22:33:37.424Z,96436.94
2023-01-18T22:36:08.899Z,96441.16
2023-01-18T22:38:41.230Z,96448.22
2023-01-18T22:41:16.626Z,96447.34
2023-01-18T22:43:48.397Z,96452.78
2023-01-18T22:46:20.767Z,96451.03
2023-01-18T22:48:51.864Z,96450.44
2023-01-18T22:51:24.175Z,96461.03
2023-01-18T22:53:56.419Z,96459.94
2023-01-18T22:56:29.349Z,96453.50
2023-01-18T22:59:00.607Z,96463.13
2023-01-18T23:01:32.329Z,96457.88
2023-01-18T23:04:04.032Z,96461.00
2023-01-18T23:06:42.354Z,96462.53
2023-01-18T23:09:14.485Z,96466.28
2023-01-18T23:11:49.050Z,96472.38
2023-01-18T23:14:31.678Z,96471.00
2023-01-18T23:17:14.353Z,96466.13
2023-01-18T23:19:44.732Z,96466.88
2023-01-18T23:22:15.163Z,96467.00
2023-01-18T23:24:45.530Z,96468.69
2023-01-18T23:27:18.439Z,96468.03
2023-01-18T23:29:49.815Z,96476.09
2023-01-18T23:32:20.527Z,96472.00
2023-01-18T23:34:50.878Z,96478.88
2023-01-18T23:37:21.209Z,96489.97
2023-01-18T23:40:03.923Z,96488.88
2023-01-18T23:42:49.879Z,96497.13
2023-01-18T23:45:32.648Z,96502.13
2023-01-18T23:48:22.586Z,96515.38
2023-01-18T23:51:05.233Z,96517.00
2023-01-18T23:53:47.864Z,96523.03
2023-01-18T23:56:18.153Z,96527.63
2023-01-18T23:58:51.482Z,96524.59
